createdAt,value
2019-02-24T00:00:49.880Z,100090.46
2019-02-24T00:03:20.057Z,100087.86
2019-02-24T00:06:04.961Z,100077.53
2019-02-24T00:08:41.899Z,100076.33
2019-02-24T00:11:12.092Z,99978.78
2019-02-24T00:13:42.326Z,100075.45
2019-02-24T00:16:13.136Z,100065.97
2019-02-24T00:18:43.354Z,100067.25
2019-02-24T00:21:13.531Z,100061.56
2019-02-24T00:23:43.795Z,100059.83
2019-02-24T00:26:14.050Z,100065.37
2019-02-24T00:29:03.559Z,100065.38
2019-02-24T00:31:53.066Z,100058.52
2019-02-24T00:34:23.293Z,100054.71
2019-02-24T00:36:53.577Z,100059.92
2019-02-24T00:39:42.882Z,100056.03
2019-02-24T00:42:13.367Z,100047.85
2019-02-24T00:45:04.454Z,100045.64
2019-02-24T00:47:35.458Z,100049.98
2019-02-24T00:50:05.978Z,100052.47
2019-02-24T00:52:39.507Z,100053.72
2019-02-24T00:55:09.760Z,100052.02
2019-02-24T00:57:59.550Z,100048.06
2019-02-24T01:00:48.742Z,100041.59
2019-02-24T01:03:19.397Z,100044.08
2019-02-24T01:06:09.885Z,100045.67
2019-02-24T01:08:41.482Z,100034.94
2019-02-24T01:11:11.860Z,100030.20
2019-02-24T01:13:51.193Z,100033.36
2019-02-24T01:16:41.169Z,100033.30
2019-02-24T01:19:11.571Z,100028.50
2019-02-24T01:22:19.902Z,100026.59
2019-02-24T01:24:50.953Z,100024.54
2019-02-24T01:27:40.386Z,100015.89
2019-02-24T01:30:29.848Z,100025.76
2019-02-24T01:33:19.553Z,100015.57
2019-02-24T01:35:51.089Z,100023.25
2019-02-24T01:38:32.634Z,100019.70
2019-02-24T01:41:03.098Z,100012.03
2019-02-24T01:43:53.270Z,100014.49
2019-02-24T01:46:24.518Z,100005.48
2019-02-24T01:49:14.054Z,100002.08
2019-02-24T01:51:44.626Z,99996.48
2019-02-24T01:54:34.454Z,99993.50
2019-02-24T01:57:24.028Z,99994.37
2019-02-24T01:59:59.889Z,99989.61
2019-02-24T02:02:30.346Z,99989.23
2019-02-24T02:05:02.056Z,99982.31
2019-02-24T02:07:32.967Z,99982.66
2019-02-24T02:10:03.839Z,99978.34
2019-02-24T02:12:54.699Z,99979.22
2019-02-24T02:15:44.219Z,99982.12
2019-02-24T02:18:34.024Z,99979.91
2019-02-24T02:21:05.423Z,99975.21
2019-02-24T02:23:39.318Z,99978.76
2019-02-24T02:26:10.600Z,99972.72
2019-02-24T02:28:46.992Z,99972.33
2019-02-24T02:31:36.588Z,99973.96
2019-02-24T02:34:07.784Z,99974.80
2019-02-24T02:36:57.577Z,99962.44
2019-02-24T02:39:28.913Z,99963.23
2019-02-24T02:42:18.565Z,99961.98
2019-02-24T02:45:09.717Z,99961.91
2019-02-24T02:47:59.025Z,99958.50
2019-02-24T02:50:48.973Z,99953.36
2019-02-24T02:56:09.226Z,99959.34
2019-02-24T02:58:40.139Z,99951.24
2019-02-24T03:01:10.360Z,99960.20
2019-02-24T03:03:59.807Z,99950.34
2019-02-24T03:07:08.349Z,99954.53
2019-02-24T03:09:57.798Z,99954.87
2019-02-24T03:12:47.470Z,99963.37
2019-02-24T03:15:17.587Z,99950.11
2019-02-24T03:18:07.061Z,99950.91
2019-02-24T03:20:56.214Z,99953.84
2019-02-24T03:23:26.654Z,99956.01
2019-02-24T03:26:16.132Z,99953.02
2019-02-24T03:28:48.434Z,99954.39
2019-02-24T03:31:18.901Z,99959.15
2019-02-24T03:34:08.456Z,99965.04
2019-02-24T03:36:38.749Z,99956.91
2019-02-24T03:39:22.425Z,99959.45
2019-02-24T03:41:53.335Z,99959.89
2019-02-24T03:44:42.870Z,99963.75
2019-02-24T03:47:13.099Z,99970.92
2019-02-24T03:50:02.619Z,99970.97
2019-02-24T03:52:55.772Z,99971.45
2019-02-24T03:55:26.084Z,99977.44
2019-02-24T03:57:56.517Z,99978.67
2019-02-24T04:00:46.031Z,99980.80
2019-02-24T04:03:35.360Z,99982.86
2019-02-24T04:06:24.581Z,99981.13
2019-02-24T04:08:54.643Z,99987.05
2019-02-24T04:11:44.977Z,99981.91
2019-02-24T04:14:34.148Z,99986.21
2019-02-24T04:17:04.336Z,99987.50
2019-02-24T04:19:53.887Z,99985.63
2019-02-24T04:22:43.579Z,99989.11
2019-02-24T04:25:14.381Z,99987.54
2019-02-24T04:28:03.556Z,99986.63
2019-02-24T04:30:33.961Z,99994.42
2019-02-24T04:33:04.068Z,99992.64
2019-02-24T04:35:53.580Z,99993.70
2019-02-24T04:38:23.764Z,99985.53
2019-02-24T04:41:13.244Z,99991.95
2019-02-24T04:44:02.798Z,99999.66
2019-02-24T04:46:52.440Z,100003.14
2019-02-24T04:52:32.728Z,100001.36
2019-02-24T04:55:02.856Z,100007.05
2019-02-24T04:57:33.291Z,100010.72
2019-02-24T05:00:22.503Z,100018.28
2019-02-24T05:02:52.909Z,100019.04
2019-02-24T05:05:23.144Z,100019.05
2019-02-24T05:07:55.726Z,100013.91
2019-02-24T05:10:45.282Z,100019.81
2019-02-24T05:13:15.468Z,100016.38
2019-02-24T05:15:45.686Z,100020.33
2019-02-24T05:18:17.086Z,100024.17
2019-02-24T05:20:47.791Z,100014.64
2019-02-24T05:23:37.778Z,100011.70
2019-02-24T05:26:07.933Z,100012.89
2019-02-24T05:28:57.413Z,100023.11
2019-02-24T05:31:46.965Z,100022.70
2019-02-24T05:34:36.518Z,100027.02
2019-02-24T05:37:06.650Z,100018.80
2019-02-24T05:39:57.768Z,100023.97
2019-02-24T05:42:53.466Z,100022.23
2019-02-24T05:45:23.646Z,100026.14
2019-02-24T05:48:13.317Z,100029.83
2019-02-24T05:50:43.655Z,99870.07
2019-02-24T05:53:32.875Z,100036.72
2019-02-24T05:56:04.079Z,100037.94
2019-02-24T05:58:34.876Z,100030.65
2019-02-24T06:01:05.046Z,100031.77
2019-02-24T06:03:35.664Z,100035.56
2019-02-24T06:06:07.559Z,100033.20
2019-02-24T06:08:57.297Z,100030.63
2019-02-24T06:11:27.397Z,100034.53
2019-02-24T06:14:16.868Z,100034.11
2019-02-24T06:17:06.240Z,100030.16
2019-02-24T06:19:47.702Z,100029.80
2019-02-24T06:23:20.648Z,100034.48
2019-02-24T06:25:50.992Z,100036.17
2019-02-24T06:28:23.937Z,100043.50
2019-02-24T06:31:13.453Z,100044.39
2019-02-24T06:34:08.877Z,100056.67
2019-02-24T06:36:39.071Z,100059.66
2019-02-24T06:39:09.582Z,100055.46
2019-02-24T06:41:51.047Z,100061.88
2019-02-24T06:44:21.932Z,100070.91
2019-02-24T06:46:55.426Z,100072.48
2019-02-24T06:49:26.014Z,100075.45
2019-02-24T06:51:56.144Z,100078.04
2019-02-24T06:54:26.338Z,100075.59
2019-02-24T06:56:56.832Z,100079.95
2019-02-24T06:59:26.953Z,100086.06
2019-02-24T07:01:57.290Z,100100.65
2019-02-24T07:04:46.503Z,100113.06
2019-02-24T07:07:16.618Z,100111.03
2019-02-24T07:09:46.995Z,100119.20
2019-02-24T07:12:36.197Z,100119.55
2019-02-24T07:15:25.602Z,100030.86
2019-02-24T07:18:14.806Z,99957.06
2019-02-24T07:20:45.074Z,100121.47
2019-02-24T07:23:16.044Z,100123.80
2019-02-24T07:25:46.751Z,100124.42
2019-02-24T07:28:37.057Z,100124.94
2019-02-24T07:31:26.563Z,100123.91
2019-02-24T07:34:16.290Z,100127.17
2019-02-24T07:36:47.335Z,100127.34
2019-02-24T07:39:38.327Z,100132.13
2019-02-24T07:42:20.689Z,100139.47
2019-02-24T07:48:10.608Z,100157.89
2019-02-24T07:50:41.144Z,99993.31
2019-02-24T07:53:13.137Z,100160.41
2019-02-24T07:55:43.734Z,100159.27
2019-02-24T07:58:32.978Z,100157.32
2019-02-24T08:01:23.071Z,100166.98
2019-02-24T08:06:54.381Z,100160.41
2019-02-24T08:09:28.178Z,100167.41
2019-02-24T08:11:58.961Z,100172.18
2019-02-24T08:15:07.295Z,100166.66
2019-02-24T08:17:40.546Z,100170.72
2019-02-24T08:20:10.709Z,100172.35
2019-02-24T08:22:41.200Z,100172.58
2019-02-24T08:25:11.397Z,100168.90
2019-02-24T08:27:41.597Z,100171.69
2019-02-24T08:30:41.220Z,100174.82
2019-02-24T08:33:05.965Z,100165.53
2019-02-24T08:35:55.463Z,100168.65
2019-02-24T08:38:44.659Z,100169.10
2019-02-24T08:41:15.209Z,100169.94
2019-02-24T08:43:45.365Z,100168.09
2019-02-24T08:46:15.511Z,100168.43
2019-02-24T08:48:45.758Z,100166.58
2019-02-24T08:51:16.310Z,100164.73
2019-02-24T08:53:47.329Z,100164.08
2019-02-24T08:56:36.699Z,100160.30
2019-02-24T08:59:26.123Z,100151.36
2019-02-24T09:01:56.593Z,100137.97
2019-02-24T09:04:27.032Z,100133.77
2019-02-24T09:06:57.225Z,100136.25
2019-02-24T09:09:27.364Z,100139.10
2019-02-24T09:11:57.534Z,100144.57
2019-02-24T09:14:27.868Z,100143.48
2019-02-24T09:17:18.180Z,100142.14
2019-02-24T09:19:49.023Z,100145.41
2019-02-24T09:22:38.299Z,100150.52
2019-02-24T09:25:28.046Z,100156.30
2019-02-24T09:28:17.613Z,100038.06
2019-02-24T09:30:48.232Z,100156.42
2019-02-24T09:33:37.952Z,100154.86
2019-02-24T09:36:27.710Z,100118.30
2019-02-24T09:39:18.171Z,100150.41
2019-02-24T09:42:07.614Z,100137.21
2019-02-24T09:44:49.254Z,100132.67
2019-02-24T09:47:20.129Z,100125.23
2019-02-24T09:50:09.548Z,100126.50
2019-02-24T09:52:59.310Z,100126.20
2019-02-24T09:55:49.140Z,100117.63
2019-02-24T09:58:37.400Z,100110.13
2019-02-24T10:01:26.903Z,100101.66
2019-02-24T10:04:16.097Z,100093.77
2019-02-24T10:10:19.470Z,100083.48
2019-02-24T10:12:51.275Z,100078.75
2019-02-24T10:15:43.642Z,100070.03
2019-02-24T10:18:32.868Z,100067.46
2019-02-24T10:21:03.598Z,100047.75
2019-02-24T10:23:53.116Z,100057.45
2019-02-24T10:26:23.258Z,100061.19
2019-02-24T10:29:13.345Z,100051.80
2019-02-24T10:34:53.751Z,100001.25
2019-02-24T10:37:44.124Z,100059.38
2019-02-24T10:40:16.043Z,100057.70
2019-02-24T10:43:08.290Z,100055.34
2019-02-24T10:45:57.710Z,100042.88
2019-02-24T10:49:09.390Z,100045.25
2019-02-24T10:51:51.818Z,100046.16
2019-02-24T10:54:28.633Z,100040.47
2019-02-24T10:57:01.256Z,100027.97
2019-02-24T10:59:52.418Z,100022.58
2019-02-24T11:02:25.818Z,100026.48
2019-02-24T11:04:56.026Z,100032.23
2019-02-24T11:07:45.243Z,100037.92
2019-02-24T11:10:38.606Z,100046.38
2019-02-24T11:13:30.989Z,100055.92
2019-02-24T11:16:27.214Z,100047.05
2019-02-24T11:19:19.257Z,100044.27
2019-02-24T11:21:51.931Z,100042.86
2019-02-24T11:24:41.647Z,100052.75
2019-02-24T11:27:13.747Z,100052.37
2019-02-24T11:29:44.808Z,100060.14
2019-02-24T11:32:17.130Z,100056.98
2019-02-24T11:35:07.062Z,100050.98
2019-02-24T11:37:40.747Z,100041.38
2019-02-24T11:40:35.253Z,100030.86
2019-02-24T11:46:21.508Z,100021.94
2019-02-24T11:48:51.804Z,100017.83
2019-02-24T11:51:34.642Z,100018.98
2019-02-24T11:54:16.652Z,100026.30
2019-02-24T11:57:05.789Z,100021.06
2019-02-24T11:59:38.716Z,100014.05
2019-02-24T12:02:34.171Z,100012.20
2019-02-24T12:05:20.415Z,99900.98
2019-02-24T12:07:54.980Z,100011.20
2019-02-24T12:10:44.588Z,100010.05
2019-02-24T12:13:35.174Z,99999.53
2019-02-24T12:16:47.971Z,100004.77
2019-02-24T12:19:37.165Z,100006.05
2019-02-24T12:22:08.210Z,100010.35
2019-02-24T12:25:00.952Z,99999.43
2019-02-24T12:27:32.331Z,100005.98
2019-02-24T12:30:24.049Z,100011.28
2019-02-24T12:33:13.668Z,100014.59
2019-02-24T12:36:03.722Z,100010.02
2019-02-24T12:38:53.270Z,100017.56
2019-02-24T12:42:02.454Z,99898.52
2019-02-24T12:45:12.520Z,100014.33
2019-02-24T12:48:03.390Z,100018.54
2019-02-24T12:50:33.787Z,100017.84
2019-02-24T12:53:05.238Z,100024.11
2019-02-24T12:55:54.456Z,100023.98
2019-02-24T12:58:25.495Z,100016.80
2019-02-24T13:00:59.507Z,100023.92
2019-02-24T13:03:30.428Z,100020.91
2019-02-24T13:06:21.642Z,100024.55
2019-02-24T13:09:11.210Z,100025.70
2019-02-24T13:11:41.406Z,100019.22
2019-02-24T13:14:31.867Z,100018.09
2019-02-24T13:17:02.049Z,100018.54
2019-02-24T13:19:52.120Z,100022.71
2019-02-24T13:22:41.332Z,100012.20
2019-02-24T13:25:11.558Z,100020.95
2019-02-24T13:28:00.883Z,100019.86
2019-02-24T13:30:42.689Z,100022.14
2019-02-24T13:33:22.897Z,100020.59
2019-02-24T13:35:53.318Z,100025.70
2019-02-24T13:38:42.592Z,100023.75
2019-02-24T13:41:32.086Z,100023.13
2019-02-24T13:44:21.468Z,100012.55
2019-02-24T13:46:55.209Z,100009.38
2019-02-24T13:49:44.440Z,100007.05
2019-02-24T13:52:33.617Z,99995.28
2019-02-24T13:55:24.142Z,99985.55
2019-02-24T13:58:13.583Z,99975.17
2019-02-24T14:01:03.411Z,99974.48
2019-02-24T14:03:33.729Z,99980.14
2019-02-24T14:06:22.893Z,99977.47
2019-02-24T14:08:53.225Z,99972.09
2019-02-24T14:11:43.613Z,99976.36
2019-02-24T14:14:20.925Z,99975.22
2019-02-24T14:16:54.146Z,99971.28
2019-02-24T14:19:43.614Z,99979.63
2019-02-24T14:22:13.948Z,99981.13
2019-02-24T14:25:03.306Z,99976.95
2019-02-24T14:27:33.655Z,99973.91
2019-02-24T14:30:14.079Z,99967.88
2019-02-24T14:33:03.844Z,99965.84
2019-02-24T14:35:34.226Z,99961.36
2019-02-24T14:38:04.632Z,99964.23
2019-02-24T14:40:54.395Z,99966.86
2019-02-24T14:43:43.701Z,99970.03
2019-02-24T14:46:33.043Z,99965.44
2019-02-24T14:49:22.943Z,99963.39
2019-02-24T14:52:12.484Z,99967.95
2019-02-24T14:55:03.983Z,99972.44
2019-02-24T14:57:52.686Z,99979.67
2019-02-24T15:01:03.730Z,99977.98
2019-02-24T15:03:33.774Z,99994.71
2019-02-24T15:09:21.180Z,99997.56
2019-02-24T15:11:51.348Z,99948.30
2019-02-24T15:14:40.515Z,99997.69
2019-02-24T15:17:30.080Z,99995.07
2019-02-24T15:22:51.973Z,99996.09
2019-02-24T15:25:41.169Z,100003.75
2019-02-24T15:28:12.646Z,99994.13
2019-02-24T15:30:42.736Z,99984.77
2019-02-24T15:33:13.088Z,99989.17
2019-02-24T15:35:44.132Z,99982.83
2019-02-24T15:38:33.516Z,99988.39
2019-02-24T15:41:29.580Z,99859.15
2019-02-24T15:43:55.125Z,99984.72
2019-02-24T15:46:46.120Z,99979.95
2019-02-24T15:49:16.313Z,99985.72
2019-02-24T15:52:09.974Z,99982.52
2019-02-24T15:54:39.367Z,99986.34
2019-02-24T15:57:10.439Z,99988.42
2019-02-24T15:59:40.595Z,99979.25
2019-02-24T16:02:10.754Z,99982.87
2019-02-24T16:04:40.919Z,99973.98
2019-02-24T16:07:30.391Z,99972.39
2019-02-24T16:10:21.271Z,99975.84
2019-02-24T16:13:16.709Z,99975.77
2019-02-24T16:15:43.606Z,99862.47
2019-02-24T16:18:14.297Z,99972.07
2019-02-24T16:20:44.915Z,99972.84
2019-02-24T16:23:15.541Z,99984.08
2019-02-24T16:25:46.065Z,99983.05
2019-02-24T16:28:16.349Z,99983.30
2019-02-24T16:30:47.580Z,99981.96
2019-02-24T16:33:17.806Z,99982.77
2019-02-24T16:35:48.331Z,99986.23
2019-02-24T16:38:38.083Z,99979.38
2019-02-24T16:41:08.333Z,99984.00
2019-02-24T16:43:38.670Z,99981.06
2019-02-24T16:46:27.846Z,99984.22
2019-02-24T16:49:18.530Z,99989.09
2019-02-24T16:51:49.027Z,99986.44
2019-02-24T16:54:41.623Z,99991.13
2019-02-24T16:57:31.778Z,99999.21
2019-02-24T17:00:21.423Z,100004.45
2019-02-24T17:02:51.704Z,100001.50
2019-02-24T17:05:41.076Z,100005.48
2019-02-24T17:08:11.524Z,100010.14
2019-02-24T17:10:42.122Z,100010.63
2019-02-24T17:13:12.465Z,100014.21
2019-02-24T17:16:01.978Z,100017.58
2019-02-24T17:18:32.204Z,100015.97
2019-02-24T17:21:02.957Z,100018.17
2019-02-24T17:23:53.080Z,100031.82
2019-02-24T17:26:24.788Z,100033.64
2019-02-24T17:28:55.130Z,100045.59
2019-02-24T17:31:28.767Z,100043.52
2019-02-24T17:33:59.507Z,100052.23
2019-02-24T17:36:29.786Z,100051.02
2019-02-24T17:42:34.124Z,100057.76
2019-02-24T17:45:06.688Z,100071.07
2019-02-24T17:47:38.428Z,100081.28
2019-02-24T17:50:10.847Z,100088.13
2019-02-24T17:52:42.779Z,100088.28
2019-02-24T17:55:15.479Z,100082.58
2019-02-24T17:57:50.188Z,100090.89
2019-02-24T18:00:28.849Z,100092.31
2019-02-24T18:03:01.912Z,100095.16
2019-02-24T18:05:32.728Z,100099.75
2019-02-24T18:08:05.266Z,100095.25
2019-02-24T18:10:55.100Z,100091.72
2019-02-24T18:13:31.130Z,100091.07
2019-02-24T18:16:01.931Z,100088.25
2019-02-24T18:18:33.259Z,100086.66
2019-02-24T18:21:06.544Z,100091.15
2019-02-24T18:23:37.676Z,100088.69
2019-02-24T19:07:28.662Z,100082.17
2019-02-24T19:09:56.107Z,100091.66
2019-02-24T19:12:27.351Z,100092.14
2019-02-24T19:14:59.403Z,100086.55
2019-02-24T19:17:31.125Z,100082.10
2019-02-24T19:20:01.747Z,100080.30
2019-02-24T19:22:53.292Z,100078.71
2019-02-24T19:31:49.050Z,100085.42
2019-02-24T19:34:30.446Z,100085.59
2019-02-24T19:39:52.673Z,100083.47
2019-02-24T19:42:24.153Z,100084.80
2019-02-24T19:45:15.970Z,100085.36
2019-02-24T19:47:46.897Z,100090.58
2019-02-24T19:50:36.692Z,100087.67
2019-02-24T19:53:27.516Z,100088.17
2019-02-24T19:55:58.786Z,100094.66
2019-02-24T19:59:06.895Z,100101.89
2019-02-24T20:02:02.108Z,100108.47
2019-02-24T20:04:36.310Z,100109.39
2019-02-24T20:10:22.883Z,100120.59
2019-02-24T20:13:12.581Z,100117.62
2019-02-24T20:16:14.272Z,100117.16
2019-02-24T20:18:54.812Z,100117.61
2019-02-24T20:22:04.714Z,100111.19
2019-02-24T20:24:35.386Z,100106.06
2019-02-24T20:27:24.957Z,100116.05
2019-02-24T20:30:15.755Z,100121.74
2019-02-24T20:32:49.750Z,100118.77
2019-02-24T20:38:17.531Z,100113.19
2019-02-24T20:40:53.758Z,100112.75
2019-02-24T20:43:44.158Z,100108.83
2019-02-24T20:46:17.207Z,100106.67
2019-02-24T20:49:07.088Z,100102.41
2019-02-24T20:52:16.606Z,100104.56
2019-02-24T20:54:52.739Z,100100.20
2019-02-24T21:00:59.902Z,100101.53
2019-02-24T21:06:45.930Z,100107.09
2019-02-24T21:09:16.226Z,100106.30
2019-02-24T21:17:55.176Z,100103.83
2019-02-24T21:20:26.738Z,100104.70
2019-02-24T21:22:57.095Z,100106.02
2019-02-24T21:25:28.565Z,100103.86
2019-02-24T21:28:17.773Z,100101.24
2019-02-24T21:31:10.256Z,100101.27
2019-02-24T21:33:59.423Z,100101.30
2019-02-24T21:36:41.191Z,100109.09
2019-02-24T21:39:11.341Z,100113.41
2019-02-24T21:41:41.638Z,100109.53
2019-02-24T21:44:31.173Z,100104.77
2019-02-24T21:47:20.491Z,100104.80
2019-02-24T21:49:50.791Z,100100.91
2019-02-24T21:52:39.914Z,100103.97
2019-02-24T21:55:29.353Z,100101.41
2019-02-24T21:58:11.408Z,100097.09
2019-02-24T22:00:51.523Z,100095.39
2019-02-24T22:03:40.743Z,100095.83
2019-02-24T22:06:11.001Z,100098.86
2019-02-24T22:09:01.375Z,100089.38
2019-02-24T22:11:31.527Z,100086.36
2019-02-24T22:14:21.020Z,100085.50
2019-02-24T22:17:10.374Z,100093.23
2019-02-24T22:19:40.529Z,99951.99
2019-02-24T22:22:11.131Z,100096.27
2019-02-24T22:24:41.239Z,100098.85
2019-02-24T22:27:30.534Z,100107.05
2019-02-24T22:30:20.048Z,100102.31
2019-02-24T22:33:09.535Z,100094.99
2019-02-24T22:35:39.719Z,100095.42
2019-02-24T22:38:29.210Z,100100.16
2019-02-24T22:40:59.452Z,100102.73
2019-02-24T22:43:48.908Z,100113.50
2019-02-24T22:46:38.348Z,100117.80
2019-02-24T22:49:27.597Z,99958.81
2019-02-24T22:52:17.107Z,100113.09
2019-02-24T22:54:47.293Z,100112.64
2019-02-24T22:57:36.799Z,100107.89
2019-02-24T23:04:12.337Z,100110.44
2019-02-24T23:06:42.826Z,99994.51
2019-02-24T23:09:17.753Z,100115.17
2019-02-24T23:11:48.080Z,100110.85
2019-02-24T23:14:37.549Z,100109.98
2019-02-24T23:17:07.718Z,100108.25
2019-02-24T23:19:57.167Z,100111.68
2019-02-24T23:22:46.845Z,100110.81
2019-02-24T23:25:36.392Z,100109.48
2019-02-24T23:28:06.528Z,100108.21
2019-02-24T23:30:55.970Z,100113.38
2019-02-24T23:33:26.689Z,100115.95
2019-02-24T23:35:57.592Z,100125.81
2019-02-24T23:38:39.293Z,100122.82
2019-02-24T23:44:12.232Z,100132.69
2019-02-24T23:47:01.684Z,100125.34
2019-02-24T23:53:01.810Z,100135.64
2019-02-24T23:55:51.267Z,100124.84
2019-02-24T23:58:40.757Z,100122.69
